Time;durP1;ratioP1;P1;durP2;ratioP2;P2;SDS_P1;SDS_P2;PMS_P1;PMS_P2;Temp;Humidity;BMP_temperature;BMP_pressure;BME280_temperature;BME280_humidity;BME280_pressure;Samples;Min_cycle;Max_cycle;Signal;HPM_P1;HPM_P2
2023/03/13 00:02:11;;;;;;;32.08;7.38;;;8.90;99.90;;;;;;4979094;28;20439;-77
2023/03/13 00:04:36;;;;;;;32.58;7.53;;;8.80;99.90;;;;;;4978781;28;20428;-77
2023/03/13 00:07:02;;;;;;;33.35;8.15;;;8.90;99.90;;;;;;4977131;28;20427;-77
2023/03/13 00:09:28;;;;;;;35.47;7.60;;;8.80;99.90;;;;;;4981107;28;20437;-77
2023/03/13 00:11:53;;;;;;;35.25;10.27;;;8.80;99.90;;;;;;4981137;28;20446;-77
2023/03/13 00:14:19;;;;;;;36.30;10.23;;;8.80;99.90;;;;;;4979952;28;20779;-76
2023/03/13 00:16:45;;;;;;;35.40;8.30;;;8.80;99.90;;;;;;5012697;28;20466;-76
2023/03/13 00:19:10;;;;;;;35.83;7.55;;;8.70;99.90;;;;;;4979476;28;20788;-77
2023/03/13 00:21:37;;;;;;;34.27;7.90;;;8.80;99.90;;;;;;4979849;28;20858;-78
2023/03/13 00:24:03;;;;;;;36.78;8.48;;;8.80;99.90;;;;;;4979691;28;20429;-77
2023/03/13 00:26:29;;;;;;;32.05;7.05;;;8.80;99.90;;;;;;4988841;28;20562;-77
2023/03/13 00:28:55;;;;;;;33.17;7.93;;;8.80;99.90;;;;;;4980361;28;20427;-75
2023/03/13 00:31:26;;;;;;;27.73;7.22;;;8.80;99.90;;;;;;4979682;28;21018;-77
2023/03/13 00:33:55;;;;;;;32.85;9.00;;;8.80;99.90;;;;;;4977566;28;20461;-75
2023/03/13 00:36:26;;;;;;;41.72;8.60;;;8.80;99.90;;;;;;4988705;28;20507;-75
2023/03/13 00:38:53;;;;;;;31.73;9.10;;;8.80;99.90;;;;;;4992338;28;20830;-75
2023/03/13 00:41:21;;;;;;;29.08;6.97;;;8.80;99.90;;;;;;4954980;28;20459;-77
2023/03/13 00:43:48;;;;;;;30.65;8.10;;;8.80;99.90;;;;;;4982373;28;20438;-77
2023/03/13 00:46:16;;;;;;;33.55;7.60;;;8.70;99.90;;;;;;4967868;28;20434;-76
2023/03/13 00:48:42;;;;;;;36.88;7.53;;;8.80;99.90;;;;;;4975457;28;20432;-75
2023/03/13 00:51:08;;;;;;;35.83;9.20;;;8.70;99.90;;;;;;5002301;28;21081;-78
2023/03/13 00:53:34;;;;;;;33.95;9.23;;;8.80;99.90;;;;;;4981871;28;20988;-77
2023/03/13 00:56:08;;;;;;;35.85;8.60;;;8.70;99.90;;;;;;4982491;28;20431;-77
2023/03/13 00:58:37;;;;;;;31.40;7.18;;;8.70;99.90;;;;;;4972158;28;20787;-75
2023/03/13 01:01:10;;;;;;;30.60;7.20;;;8.80;99.90;;;;;;4978691;28;20426;-77
2023/03/13 01:03:37;;;;;;;31.63;9.35;;;8.80;99.90;;;;;;4970897;28;21065;-77
2023/03/13 01:06:05;;;;;;;38.17;8.95;;;8.80;99.90;;;;;;4981069;28;20514;-77
2023/03/13 01:08:31;;;;;;;38.10;9.50;;;8.70;99.90;;;;;;4979143;28;20432;-76
2023/03/13 01:11:05;;;;;;;33.00;8.27;;;8.70;99.90;;;;;;4971829;28;20465;-77
2023/03/13 01:13:31;;;;;;;28.90;8.02;;;8.80;99.90;;;;;;4975283;28;20469;-75
2023/03/13 01:16:01;;;;;;;37.65;9.13;;;8.90;99.90;;;;;;4980257;28;20462;-76
2023/03/13 01:18:27;;;;;;;29.27;7.53;;;8.80;99.90;;;;;;4962636;28;20432;-75
2023/03/13 01:20:53;;;;;;;28.95;7.93;;;8.80;99.90;;;;;;4977551;28;20989;-77
2023/03/13 01:23:19;;;;;;;34.45;8.38;;;8.90;99.90;;;;;;4977728;28;20530;-77
2023/03/13 01:25:44;;;;;;;34.63;8.55;;;8.90;99.90;;;;;;4978066;28;20419;-75
2023/03/13 01:28:10;;;;;;;33.28;8.57;;;8.80;99.90;;;;;;4977431;28;20434;-76
2023/03/13 01:30:35;;;;;;;30.80;8.43;;;8.80;99.90;;;;;;4946980;28;20557;-78
2023/03/13 01:33:01;;;;;;;30.83;9.27;;;8.90;99.90;;;;;;4973871;28;20432;-76
2023/03/13 01:35:27;;;;;;;32.83;6.80;;;8.90;99.90;;;;;;4975781;28;20472;-76
2023/03/13 01:37:52;;;;;;;24.80;7.13;;;8.90;99.90;;;;;;4981379;28;20430;-76
2023/03/13 01:40:18;;;;;;;33.63;8.43;;;9.00;99.90;;;;;;4982027;28;20431;-77
2023/03/13 01:42:57;;;;;;;27.30;6.40;;;9.00;99.90;;;;;;4980396;28;20434;-77
2023/03/13 01:45:52;;;;;;;38.88;8.52;;;9.00;99.90;;;;;;4982033;28;20434;-75
2023/03/13 01:48:19;;;;;;;32.97;7.83;;;9.00;99.90;;;;;;4962611;28;20632;-76
2023/03/13 01:50:45;;;;;;;32.35;9.20;;;9.00;99.90;;;;;;4980615;28;20418;-76
2023/03/13 01:53:11;;;;;;;35.85;8.50;;;9.00;99.90;;;;;;4988478;28;21310;-76
2023/03/13 01:55:37;;;;;;;30.60;7.67;;;9.00;99.90;;;;;;4984196;28;20433;-76
2023/03/13 01:58:03;;;;;;;35.25;8.10;;;9.00;99.90;;;;;;4983715;28;20433;-76
2023/03/13 02:00:32;;;;;;;30.20;8.17;;;8.90;99.90;;;;;;5006540;28;20920;-75
2023/03/13 02:03:05;;;;;;;35.83;8.48;;;9.00;99.90;;;;;;4974488;23;20470;-77
2023/03/13 02:05:30;;;;;;;27.60;8.20;;;9.00;99.90;;;;;;4891039;28;20432;-76
2023/03/13 02:08:03;;;;;;;27.35;7.50;;;8.90;99.90;;;;;;4907868;28;20462;-75
2023/03/13 02:10:30;;;;;;;27.45;7.18;;;9.00;99.90;;;;;;4917425;28;20524;-76
2023/03/13 02:12:59;;;;;;;26.45;6.85;;;8.80;99.90;;;;;;4901987;28;20457;-77
2023/03/13 02:15:27;;;;;;;27.80;7.90;;;8.90;99.90;;;;;;4910754;28;20508;-77
2023/03/13 02:17:54;;;;;;;21.77;7.45;;;9.00;99.90;;;;;;4908966;28;20983;-76
2023/03/13 02:20:21;;;;;;;28.83;6.97;;;9.00;99.90;;;;;;4897274;29;20443;-77
2023/03/13 02:23:05;;;;;;;25.10;6.53;;;9.00;99.90;;;;;;4908767;28;20456;-77
2023/03/13 02:26:00;;;;;;;25.17;6.95;;;9.00;99.90;;;;;;4918074;28;20441;-76
2023/03/13 02:28:32;;;;;;;22.70;6.15;;;9.00;99.90;;;;;;4933425;28;21060;-75
2023/03/13 02:30:59;;;;;;;19.58;6.13;;;9.00;99.90;;;;;;4912604;29;20436;-75
2023/03/13 02:33:52;;;;;;;23.75;6.30;;;9.10;99.90;;;;;;4908537;28;20447;-78
2023/03/13 02:36:18;;;;;;;17.45;5.53;;;9.00;99.90;;;;;;4904714;28;20468;-77
2023/03/13 02:39:01;;;;;;;16.45;6.00;;;9.10;99.90;;;;;;4905821;29;20444;-78
2023/03/13 02:41:27;;;;;;;14.88;5.25;;;9.10;99.90;;;;;;4915776;29;20495;-76
2023/03/13 02:43:53;;;;;;;18.63;5.15;;;9.10;99.90;;;;;;4912584;28;20472;-76
2023/03/13 02:46:20;;;;;;;14.82;5.15;;;9.10;99.90;;;;;;4911187;28;20449;-77
2023/03/13 02:48:52;;;;;;;15.20;4.90;;;9.10;99.90;;;;;;4918663;29;20441;-76
2023/03/13 02:51:40;;;;;;;20.75;5.95;;;9.20;99.90;;;;;;4907099;28;20444;-76
2023/03/13 02:54:11;;;;;;;15.63;4.60;;;9.10;99.90;;;;;;4911178;28;20445;-77
2023/03/13 02:56:39;;;;;;;10.45;4.60;;;9.20;99.90;;;;;;4909927;28;20451;-75
2023/03/13 02:59:05;;;;;;;14.00;4.25;;;9.20;99.90;;;;;;4918235;28;20431;-77
2023/03/13 03:01:31;;;;;;;15.02;4.97;;;9.20;99.90;;;;;;4909954;28;20436;-77
2023/03/13 03:03:57;;;;;;;12.77;5.20;;;9.20;99.90;;;;;;4909531;28;20456;-76
2023/03/13 03:06:23;;;;;;;13.35;4.18;;;9.20;99.90;;;;;;4911207;28;20429;-76
2023/03/13 03:08:48;;;;;;;12.55;4.90;;;9.30;99.90;;;;;;4903159;28;20790;-76
2023/03/13 03:11:14;;;;;;;9.27;3.70;;;9.30;99.90;;;;;;4910784;28;20775;-76
2023/03/13 03:13:40;;;;;;;8.75;3.88;;;9.30;99.90;;;;;;4914095;28;20440;-77
2023/03/13 03:16:07;;;;;;;11.80;4.00;;;9.40;99.90;;;;;;4906346;28;20438;-77
2023/03/13 03:18:34;;;;;;;10.03;4.10;;;9.40;99.90;;;;;;4908566;28;20904;-76
2023/03/13 03:21:00;;;;;;;7.50;3.90;;;9.30;99.90;;;;;;4917025;28;20459;-76
2023/03/13 03:23:26;;;;;;;9.07;4.15;;;9.40;99.90;;;;;;4910594;28;20492;-77
2023/03/13 03:25:51;;;;;;;6.70;4.07;;;9.40;99.90;;;;;;4905058;28;20438;-77
2023/03/13 03:28:17;;;;;;;11.38;4.10;;;9.40;99.90;;;;;;4915240;28;20458;-77
2023/03/13 03:30:43;;;;;;;7.50;3.60;;;9.40;99.90;;;;;;4907957;28;20521;-76
2023/03/13 03:33:08;;;;;;;8.03;3.73;;;9.40;99.90;;;;;;4908601;28;20528;-76
2023/03/13 03:35:37;;;;;;;5.97;4.60;;;9.50;99.90;;;;;;4912591;28;20827;-76
2023/03/13 03:38:03;;;;;;;9.00;4.90;;;9.50;99.90;;;;;;4904395;28;20446;-77
2023/03/13 03:40:29;;;;;;;7.43;4.47;;;9.60;99.90;;;;;;4921527;28;20444;-76
2023/03/13 03:42:55;;;;;;;7.60;3.85;;;9.60;99.90;;;;;;4907290;28;20449;-76
2023/03/13 03:45:20;;;;;;;7.20;3.80;;;9.60;99.90;;;;;;4906417;28;20440;-76
2023/03/13 03:47:46;;;;;;;6.45;3.78;;;9.60;99.90;;;;;;4910562;28;20441;-76
2023/03/13 03:50:12;;;;;;;6.75;4.40;;;9.60;99.90;;;;;;4911854;28;20424;-76
2023/03/13 03:52:38;;;;;;;7.53;4.20;;;9.70;99.90;;;;;;4907018;28;20445;-76
2023/03/13 03:55:04;;;;;;;6.43;4.35;;;9.70;99.90;;;;;;4889723;28;20535;-77
2023/03/13 03:57:29;;;;;;;6.65;4.28;;;9.80;99.90;;;;;;4906731;28;20520;-76
2023/03/13 03:59:55;;;;;;;5.53;4.22;;;9.80;99.90;;;;;;4911475;28;20427;-78
2023/03/13 04:02:21;;;;;;;5.25;4.38;;;9.90;99.90;;;;;;4909227;28;20536;-76
2023/03/13 04:04:46;;;;;;;7.82;4.75;;;9.90;99.90;;;;;;4903967;28;20477;-77
2023/03/13 04:07:12;;;;;;;7.85;4.90;;;9.90;99.90;;;;;;4905532;28;20428;-78
2023/03/13 04:09:38;;;;;;;6.18;5.05;;;9.90;99.90;;;;;;4904081;28;20476;-76
2023/03/13 04:12:04;;;;;;;7.90;5.97;;;10.00;99.90;;;;;;4898250;28;20431;-77
2023/03/13 04:14:29;;;;;;;9.20;7.15;;;10.00;99.90;;;;;;4902738;28;20434;-76
2023/03/13 04:16:55;;;;;;;10.07;7.50;;;10.10;99.90;;;;;;4906322;28;20822;-76
2023/03/13 04:19:21;;;;;;;10.00;7.70;;;10.10;99.90;;;;;;4907737;28;21193;-75
2023/03/13 04:21:46;;;;;;;13.60;8.73;;;10.20;99.90;;;;;;4907489;28;20783;-78
2023/03/13 04:24:12;;;;;;;12.00;8.70;;;10.10;99.90;;;;;;4906924;28;20495;-76
2023/03/13 04:26:37;;;;;;;11.40;9.10;;;10.40;99.90;;;;;;4905698;28;20509;-75
2023/03/13 04:29:05;;;;;;;11.60;8.65;;;10.40;99.90;;;;;;4905532;28;20792;-75
2023/03/13 04:31:32;;;;;;;15.17;9.73;;;10.60;99.90;;;;;;4901785;28;20439;-75
2023/03/13 04:33:58;;;;;;;15.75;9.77;;;10.50;99.90;;;;;;4904338;28;20931;-75
2023/03/13 04:36:23;;;;;;;13.18;10.23;;;10.60;99.90;;;;;;4906592;28;20478;-76
2023/03/13 04:38:49;;;;;;;18.55;10.63;;;10.70;99.90;;;;;;4905761;29;20449;-77
2023/03/13 04:41:15;;;;;;;16.25;9.50;;;10.70;99.90;;;;;;4887785;28;20470;-76
2023/03/13 04:43:40;;;;;;;16.10;10.35;;;10.80;99.90;;;;;;4905623;28;20508;-75
2023/03/13 04:46:06;;;;;;;15.43;9.95;;;10.70;99.90;;;;;;4904185;28;20456;-78
2023/03/13 04:48:31;;;;;;;14.77;10.47;;;10.70;99.90;;;;;;4905819;28;20448;-75
2023/03/13 04:50:57;;;;;;;17.17;9.40;;;10.80;99.90;;;;;;4906107;28;20432;-76
2023/03/13 04:53:23;;;;;;;13.70;8.87;;;10.80;99.90;;;;;;4905035;28;21303;-77
2023/03/13 04:55:49;;;;;;;16.50;8.70;;;10.70;99.90;;;;;;4895911;28;20844;-78
2023/03/13 04:58:15;;;;;;;14.57;8.77;;;10.80;99.90;;;;;;4915209;29;20452;-77
2023/03/13 05:00:41;;;;;;;20.48;9.65;;;10.90;99.90;;;;;;4905288;28;20804;-75
2023/03/13 05:03:07;;;;;;;15.07;7.07;;;10.90;99.90;;;;;;4902797;28;20525;-76
2023/03/13 05:05:34;;;;;;;16.67;7.68;;;10.80;99.90;;;;;;4904517;28;20438;-76
2023/03/13 05:08:00;;;;;;;15.40;8.27;;;10.90;99.90;;;;;;4913470;29;20475;-75
2023/03/13 05:10:26;;;;;;;17.50;8.20;;;10.80;99.90;;;;;;4902872;28;20745;-77
2023/03/13 05:12:51;;;;;;;17.65;7.00;;;10.80;99.90;;;;;;4907730;28;20483;-77
2023/03/13 05:15:17;;;;;;;15.17;7.00;;;10.90;99.90;;;;;;4907279;28;20760;-77
2023/03/13 05:17:43;;;;;;;14.23;5.43;;;10.90;99.90;;;;;;4908205;28;20426;-76
2023/03/13 05:20:10;;;;;;;14.00;6.23;;;10.90;99.90;;;;;;4904858;28;20453;-77
2023/03/13 05:22:36;;;;;;;10.93;5.20;;;10.90;99.90;;;;;;4910912;28;20442;-78
2023/03/13 05:25:03;;;;;;;13.38;5.47;;;10.90;99.90;;;;;;4904256;28;20441;-75
2023/03/13 05:27:29;;;;;;;9.38;5.57;;;10.90;99.90;;;;;;4888289;29;20485;-77
2023/03/13 05:29:55;;;;;;;10.25;4.80;;;11.00;99.90;;;;;;4906452;28;20896;-77
2023/03/13 05:32:21;;;;;;;10.73;5.05;;;10.90;99.90;;;;;;4902793;28;20429;-76
2023/03/13 05:34:46;;;;;;;15.25;5.15;;;10.90;99.90;;;;;;4902644;28;20441;-77
2023/03/13 05:37:12;;;;;;;13.02;4.78;;;10.90;99.90;;;;;;4916215;29;20429;-78
2023/03/13 05:39:38;;;;;;;16.50;5.07;;;11.10;99.90;;;;;;4912162;28;20450;-76
2023/03/13 05:42:04;;;;;;;13.68;4.72;;;11.00;99.90;;;;;;4911904;28;20843;-77
2023/03/13 05:44:29;;;;;;;14.68;5.65;;;11.00;99.90;;;;;;4900355;28;20928;-77
2023/03/13 05:46:55;;;;;;;18.48;5.65;;;11.00;99.90;;;;;;4906410;29;20437;-78
2023/03/13 05:49:21;;;;;;;13.48;5.18;;;11.00;99.90;;;;;;4899701;29;20457;-77
2023/03/13 05:51:47;;;;;;;14.63;5.07;;;11.10;99.90;;;;;;4912993;28;21100;-76
2023/03/13 05:54:13;;;;;;;15.50;5.28;;;11.10;99.90;;;;;;4920768;28;20437;-78
2023/03/13 05:56:38;;;;;;;18.85;6.10;;;11.10;99.90;;;;;;4911114;28;20422;-76
2023/03/13 05:59:04;;;;;;;18.73;6.30;;;11.10;99.90;;;;;;4906287;28;20796;-78
2023/03/13 06:01:30;;;;;;;20.37;7.00;;;11.10;99.90;;;;;;4905921;28;20426;-78
2023/03/13 06:03:55;;;;;;;18.03;5.57;;;11.00;99.90;;;;;;4905811;28;20454;-75
2023/03/13 06:06:21;;;;;;;19.67;6.07;;;11.10;99.90;;;;;;4901400;28;20847;-76
2023/03/13 06:08:46;;;;;;;16.17;5.43;;;11.00;99.90;;;;;;4899634;28;20546;-76
2023/03/13 06:11:12;;;;;;;16.60;5.88;;;11.10;99.90;;;;;;4902682;28;20533;-75
2023/03/13 06:13:38;;;;;;;17.25;5.43;;;11.00;99.90;;;;;;4905824;28;20453;-78
2023/03/13 06:16:04;;;;;;;17.50;5.00;;;10.90;99.90;;;;;;4903205;28;20521;-78
2023/03/13 06:18:30;;;;;;;16.40;4.85;;;10.90;99.90;;;;;;4903380;28;20443;-80
2023/03/13 06:20:57;;;;;;;13.63;4.63;;;11.00;99.90;;;;;;4890986;28;20445;-78
2023/03/13 06:23:23;;;;;;;14.02;4.90;;;10.90;99.90;;;;;;4904841;28;20441;-78
2023/03/13 06:25:49;;;;;;;13.00;5.13;;;11.00;99.90;;;;;;4902911;28;20471;-78
2023/03/13 06:28:15;;;;;;;18.42;5.57;;;10.90;99.90;;;;;;4905816;28;20445;-77
2023/03/13 06:30:41;;;;;;;13.75;4.63;;;11.10;99.90;;;;;;4904830;28;20599;-77
2023/03/13 06:33:06;;;;;;;16.08;5.13;;;11.10;99.90;;;;;;4905262;28;20437;-77
2023/03/13 06:35:32;;;;;;;12.63;4.43;;;11.10;99.90;;;;;;4906783;28;20532;-76
2023/03/13 06:37:58;;;;;;;15.27;4.95;;;11.20;99.90;;;;;;4906169;28;20499;-76
2023/03/13 06:40:23;;;;;;;16.08;5.35;;;11.20;99.90;;;;;;4895826;28;20439;-78
2023/03/13 06:42:49;;;;;;;12.38;4.95;;;11.20;99.90;;;;;;4904765;28;20446;-78
2023/03/13 06:45:15;;;;;;;15.77;5.20;;;11.20;99.90;;;;;;4909484;28;20440;-78
2023/03/13 06:47:40;;;;;;;16.10;4.88;;;11.10;99.90;;;;;;4901618;28;20883;-77
2023/03/13 06:50:07;;;;;;;12.97;4.97;;;11.20;99.90;;;;;;4906976;28;20835;-77
2023/03/13 06:52:32;;;;;;;15.40;5.10;;;11.10;99.90;;;;;;4904108;28;20526;-76
2023/03/13 06:54:58;;;;;;;16.80;5.90;;;11.10;99.90;;;;;;4903307;28;20504;-76
2023/03/13 06:57:24;;;;;;;20.13;5.37;;;11.10;99.90;;;;;;4904927;28;20441;-77
2023/03/13 06:59:49;;;;;;;13.80;4.83;;;11.20;99.90;;;;;;4904782;29;20536;-77
2023/03/13 07:02:15;;;;;;;15.37;5.47;;;11.20;99.90;;;;;;4900022;28;20792;-76
2023/03/13 07:04:41;;;;;;;16.57;5.93;;;11.10;99.90;;;;;;4907816;28;20433;-77
2023/03/13 07:07:07;;;;;;;14.50;4.68;;;11.20;99.90;;;;;;4907542;29;20439;-76
2023/03/13 07:09:33;;;;;;;18.35;6.13;;;11.20;99.90;;;;;;4921945;28;20445;-76
2023/03/13 07:11:59;;;;;;;17.23;5.15;;;11.20;99.90;;;;;;4910996;28;20436;-76
2023/03/13 07:14:24;;;;;;;22.55;5.50;;;11.10;99.90;;;;;;4902085;28;20445;-78
2023/03/13 07:16:50;;;;;;;12.85;5.20;;;11.20;99.90;;;;;;4902982;28;20950;-76
2023/03/13 07:19:16;;;;;;;17.90;5.30;;;11.20;99.90;;;;;;4904583;28;20491;-76
2023/03/13 07:21:42;;;;;;;14.80;5.13;;;11.20;99.90;;;;;;4905633;28;20441;-76
2023/03/13 07:24:08;;;;;;;17.17;4.75;;;11.20;99.90;;;;;;4903560;28;20511;-76
2023/03/13 07:26:34;;;;;;;15.43;4.77;;;11.20;99.90;;;;;;4906435;28;20426;-80
2023/03/13 07:29:00;;;;;;;17.30;4.87;;;11.20;99.90;;;;;;4964711;28;20961;-79
2023/03/13 07:31:26;;;;;;;11.43;3.80;;;11.10;99.90;;;;;;4910370;28;20503;-76
2023/03/13 07:33:55;;;;;;;11.80;4.28;;;11.20;99.90;;;;;;4906022;28;20445;-76
2023/03/13 07:36:21;;;;;;;15.52;4.75;;;11.20;99.90;;;;;;4908119;28;20650;-77
2023/03/13 07:38:48;;;;;;;14.68;4.32;;;11.20;99.90;;;;;;4893900;28;20442;-76
2023/03/13 07:41:14;;;;;;;12.82;4.88;;;11.10;99.90;;;;;;4908295;28;20440;-77
2023/03/13 07:43:40;;;;;;;11.90;3.87;;;11.20;99.90;;;;;;4904579;28;20441;-78
2023/03/13 07:46:08;;;;;;;11.77;4.18;;;11.10;99.90;;;;;;4899252;28;20555;-75
2023/03/13 07:48:35;;;;;;;13.38;5.35;;;11.20;99.90;;;;;;4901262;28;20448;-76
2023/03/13 07:51:02;;;;;;;12.23;4.38;;;11.10;99.90;;;;;;4900402;28;20441;-76
2023/03/13 07:53:28;;;;;;;12.75;5.18;;;11.10;99.90;;;;;;4904656;28;20872;-76
2023/03/13 07:56:00;;;;;;;12.40;5.22;;;11.10;99.90;;;;;;4904379;28;20531;-76
2023/03/13 07:58:28;;;;;;;11.13;4.00;;;11.20;99.90;;;;;;4904101;28;20815;-77
2023/03/13 08:00:54;;;;;;;8.68;3.38;;;11.20;99.90;;;;;;4905301;28;20476;-78
2023/03/13 08:03:21;;;;;;;14.40;4.53;;;11.20;99.90;;;;;;4910423;28;21002;-74
2023/03/13 08:05:46;;;;;;;11.52;3.38;;;11.20;99.90;;;;;;4907707;28;20464;-75
2023/03/13 08:08:12;;;;;;;9.70;3.27;;;11.30;99.90;;;;;;4908417;28;20441;-78
2023/03/13 08:10:38;;;;;;;8.37;2.80;;;11.30;99.90;;;;;;4904350;28;20437;-75
2023/03/13 08:13:04;;;;;;;14.90;4.17;;;11.40;99.90;;;;;;4908173;29;20441;-75
2023/03/13 08:15:29;;;;;;;9.57;3.27;;;11.40;99.90;;;;;;4910998;28;20875;-75
2023/03/13 08:17:56;;;;;;;9.43;3.25;;;11.50;99.90;;;;;;4909139;29;20429;-76
2023/03/13 08:20:21;;;;;;;7.63;3.03;;;11.60;99.90;;;;;;4907531;28;20445;-76
2023/03/13 08:22:49;;;;;;;9.00;3.40;;;11.60;99.90;;;;;;4908945;28;20507;-76
2023/03/13 08:25:15;;;;;;;11.02;3.10;;;11.70;99.90;;;;;;4903737;28;20445;-75
2023/03/13 08:27:41;;;;;;;8.18;2.88;;;11.70;99.90;;;;;;4917075;28;20459;-75
2023/03/13 08:30:07;;;;;;;10.20;3.17;;;11.80;99.90;;;;;;4902507;28;20512;-75
2023/03/13 08:32:34;;;;;;;12.65;3.78;;;11.70;99.90;;;;;;4902371;28;20524;-75
2023/03/13 08:35:00;;;;;;;6.50;2.85;;;11.80;99.90;;;;;;4899186;28;20479;-74
2023/03/13 08:37:25;;;;;;;8.13;2.70;;;11.80;99.90;;;;;;4902958;28;20995;-76
2023/03/13 08:39:53;;;;;;;12.20;2.85;;;11.80;99.90;;;;;;4902492;28;20437;-77
2023/03/13 08:42:18;;;;;;;7.90;2.63;;;11.90;99.90;;;;;;4905814;28;21022;-78
2023/03/13 08:44:44;;;;;;;6.73;2.47;;;12.00;99.90;;;;;;4904066;28;20567;-75
2023/03/13 08:47:10;;;;;;;7.43;2.00;;;12.10;99.90;;;;;;4904571;28;20451;-76
2023/03/13 08:49:35;;;;;;;8.15;3.20;;;12.10;99.90;;;;;;4901636;28;20441;-76
2023/03/13 08:52:04;;;;;;;9.45;2.40;;;12.20;99.90;;;;;;4888323;28;22040;-75
2023/03/13 08:54:30;;;;;;;7.38;2.13;;;12.30;99.90;;;;;;4903177;28;20940;-76
2023/03/13 08:56:55;;;;;;;9.07;2.05;;;12.20;99.90;;;;;;4903638;28;20485;-76
2023/03/13 08:59:21;;;;;;;10.52;3.08;;;12.30;99.90;;;;;;4904751;28;20465;-77
2023/03/13 09:01:47;;;;;;;6.53;2.42;;;12.30;99.90;;;;;;4904229;28;20437;-78
2023/03/13 09:04:13;;;;;;;10.48;2.40;;;12.20;99.90;;;;;;4899916;28;20464;-77
2023/03/13 09:06:39;;;;;;;9.25;2.20;;;12.10;99.90;;;;;;4889700;28;20437;-77
2023/03/13 09:09:05;;;;;;;8.55;2.20;;;12.10;99.90;;;;;;4906930;28;20516;-78
2023/03/13 09:11:32;;;;;;;11.25;3.53;;;12.20;99.90;;;;;;4911481;28;21201;-78
2023/03/13 09:13:58;;;;;;;10.98;3.05;;;12.20;99.90;;;;;;4905804;28;20812;-79
2023/03/13 09:16:26;;;;;;;12.35;2.95;;;12.20;99.90;;;;;;4903457;28;20440;-77
2023/03/13 09:18:52;;;;;;;11.07;3.00;;;12.20;99.90;;;;;;4905571;28;20434;-78
2023/03/13 09:21:21;;;;;;;13.80;3.53;;;12.20;99.90;;;;;;4907193;29;20464;-76
2023/03/13 09:23:47;;;;;;;12.25;3.80;;;12.10;99.90;;;;;;4910109;28;20779;-75
2023/03/13 09:26:14;;;;;;;13.67;3.47;;;12.20;99.90;;;;;;4904902;28;20512;-74
2023/03/13 09:28:43;;;;;;;13.68;2.97;;;12.10;99.90;;;;;;4898431;28;20480;-77
2023/03/13 09:31:14;;;;;;;15.50;4.15;;;12.20;99.90;;;;;;4905209;29;20453;-77
2023/03/13 09:33:42;;;;;;;11.57;4.65;;;12.20;99.90;;;;;;4905189;29;20468;-77
2023/03/13 09:36:08;;;;;;;16.00;4.63;;;12.20;99.90;;;;;;4900083;28;21067;-76
2023/03/13 09:38:35;;;;;;;13.43;3.33;;;12.40;99.90;;;;;;4907002;29;20458;-77
2023/03/13 09:41:13;;;;;;;13.93;4.47;;;12.50;99.90;;;;;;4906982;28;20425;-76
2023/03/13 09:43:47;;;;;;;12.10;3.22;;;12.40;99.90;;;;;;4905557;28;20441;-77
2023/03/13 09:46:22;;;;;;;13.50;4.47;;;12.40;99.90;;;;;;4906340;28;20535;-79
2023/03/13 09:48:51;;;;;;;12.40;3.60;;;12.50;99.90;;;;;;4906243;28;20526;-81
2023/03/13 09:51:37;;;;;;;16.63;3.40;;;12.50;99.90;;;;;;4902753;28;20880;-77
2023/03/13 09:54:21;;;;;;;15.47;4.00;;;12.50;99.90;;;;;;4889068;29;20567;-79
2023/03/13 09:57:00;;;;;;;14.90;3.80;;;12.70;99.90;;;;;;4903717;28;20472;-79
2023/03/13 09:59:34;;;;;;;17.83;4.83;;;12.70;99.90;;;;;;4906766;28;20523;-77
2023/03/13 10:02:04;;;;;;;19.38;4.88;;;12.70;99.90;;;;;;4905138;28;20776;-77
2023/03/13 10:04:48;;;;;;;18.80;5.60;;;13.00;99.90;;;;;;4906086;28;20499;-77
2023/03/13 10:07:13;;;;;;;16.30;4.40;;;13.20;99.90;;;;;;4906482;29;20418;-79
2023/03/13 10:09:42;;;;;;;17.38;4.05;;;13.10;99.90;;;;;;4900674;28;20441;-79
2023/03/13 10:12:23;;;;;;;18.40;5.03;;;13.10;99.90;;;;;;4905268;28;20864;-78
2023/03/13 10:15:16;;;;;;;15.93;4.85;;;13.10;99.90;;;;;;4899167;28;20461;-78
2023/03/13 10:17:42;;;;;;;16.52;4.85;;;13.20;99.90;;;;;;4905285;28;20433;-78
2023/03/13 10:20:32;;;;;;;14.93;5.07;;;13.30;99.90;;;;;;4906101;28;20437;-77
2023/03/13 10:23:04;;;;;;;26.00;5.82;;;13.30;99.90;;;;;;4905218;28;20473;-76
2023/03/13 10:25:33;;;;;;;20.38;4.88;;;13.20;99.90;;;;;;4903147;28;20431;-77
2023/03/13 10:27:59;;;;;;;18.20;4.68;;;13.30;99.90;;;;;;4905060;29;20449;-77
2023/03/13 10:30:38;;;;;;;22.25;6.03;;;13.30;99.90;;;;;;4905211;29;20433;-76
2023/03/13 10:33:06;;;;;;;28.10;7.27;;;13.30;99.90;;;;;;4895071;28;21111;-77
2023/03/13 10:35:41;;;;;;;23.83;5.57;;;13.40;99.90;;;;;;4904497;28;20563;-75
2023/03/13 10:38:11;;;;;;;21.95;5.32;;;13.30;99.90;;;;;;4907963;28;20441;-76
2023/03/13 10:40:37;;;;;;;18.42;4.57;;;13.30;99.90;;;;;;4910385;28;20444;-77
2023/03/13 10:43:13;;;;;;;18.70;5.68;;;13.50;99.90;;;;;;4909217;28;20425;-77
2023/03/13 10:45:39;;;;;;;19.33;5.32;;;13.60;99.90;;;;;;4906761;28;20434;-76
2023/03/13 10:48:25;;;;;;;19.85;5.53;;;13.60;99.90;;;;;;4909248;28;20819;-78
2023/03/13 10:50:58;;;;;;;26.83;5.38;;;13.40;99.90;;;;;;4899915;29;20530;-77
2023/03/13 10:53:29;;;;;;;19.05;5.45;;;13.60;99.90;;;;;;4892237;29;20419;-77
2023/03/13 10:55:57;;;;;;;23.17;5.68;;;13.60;99.90;;;;;;4909768;28;20442;-78
2023/03/13 10:58:43;;;;;;;17.95;4.97;;;13.60;99.90;;;;;;4908630;28;20429;-77
2023/03/13 11:01:23;;;;;;;17.73;5.50;;;13.70;99.90;;;;;;4911480;28;20441;-77
2023/03/13 11:03:50;;;;;;;17.15;4.60;;;13.80;99.90;;;;;;4898607;28;20814;-78
2023/03/13 11:06:33;;;;;;;19.40;4.68;;;13.80;99.90;;;;;;4907526;28;20440;-78
2023/03/13 11:09:16;;;;;;;16.58;4.45;;;13.90;99.90;;;;;;4907508;28;20534;-75
2023/03/13 11:11:47;;;;;;;16.48;4.68;;;13.80;99.90;;;;;;4909789;28;20444;-77
2023/03/13 11:14:18;;;;;;;11.38;3.70;;;13.80;99.90;;;;;;4908684;28;20445;-77
2023/03/13 11:16:49;;;;;;;14.30;3.58;;;13.70;99.90;;;;;;4910392;28;20437;-77
2023/03/13 11:19:21;;;;;;;13.65;3.80;;;13.90;99.90;;;;;;4909991;29;20463;-77
2023/03/13 11:22:17;;;;;;;17.20;4.73;;;14.10;99.90;;;;;;4909963;29;20426;-76
2023/03/13 11:24:55;;;;;;;12.93;3.38;;;14.00;99.90;;;;;;4908539;28;20433;-77
2023/03/13 11:27:54;;;;;;;12.50;3.55;;;14.00;99.90;;;;;;4909142;28;20421;-78
2023/03/13 11:30:41;;;;;;;13.68;4.57;;;14.10;99.90;;;;;;4909691;28;20946;-77
2023/03/13 11:33:28;;;;;;;15.73;4.00;;;14.20;99.90;;;;;;4902639;28;20437;-77
2023/03/13 11:35:54;;;;;;;15.02;3.63;;;14.20;99.90;;;;;;4892066;28;20449;-76
2023/03/13 11:38:37;;;;;;;13.77;4.17;;;14.20;99.90;;;;;;4907512;28;21027;-76
2023/03/13 11:41:09;;;;;;;16.57;4.43;;;14.10;99.90;;;;;;4908843;28;20433;-77
2023/03/13 11:44:12;;;;;;;15.85;4.25;;;14.20;99.90;;;;;;4908259;28;20760;-76
2023/03/13 11:46:39;;;;;;;12.63;3.47;;;14.20;99.90;;;;;;4909219;28;20444;-77
2023/03/13 11:49:37;;;;;;;13.98;3.65;;;14.10;99.90;;;;;;4906197;28;20433;-77
2023/03/13 11:52:28;;;;;;;14.07;3.87;;;14.10;99.90;;;;;;4907742;28;20557;-77
2023/03/13 11:54:57;;;;;;;14.55;3.95;;;14.00;99.90;;;;;;4907529;28;20465;-77
2023/03/13 11:57:36;;;;;;;14.00;4.40;;;14.00;99.90;;;;;;4906083;28;20425;-74
2023/03/13 12:00:21;;;;;;;14.88;4.05;;;13.90;99.90;;;;;;4905170;28;20792;-77
2023/03/13 12:03:03;;;;;;;16.27;4.47;;;14.10;99.90;;;;;;4909595;28;20504;-79
2023/03/13 12:05:46;;;;;;;17.70;4.93;;;14.10;99.90;;;;;;4904366;28;20923;-77
2023/03/13 12:08:19;;;;;;;15.07;4.47;;;14.20;99.90;;;;;;4897836;29;20512;-78
2023/03/13 12:11:20;;;;;;;17.92;4.88;;;14.20;99.90;;;;;;4907551;28;20511;-78
2023/03/13 12:13:53;;;;;;;18.15;4.88;;;14.20;99.90;;;;;;4918764;29;20437;-78
2023/03/13 12:16:24;;;;;;;19.80;4.45;;;14.40;99.90;;;;;;4907637;28;20432;-78
2023/03/13 12:18:52;;;;;;;17.25;4.53;;;14.30;99.90;;;;;;4901092;28;20433;-80
2023/03/13 12:21:33;;;;;;;20.47;5.20;;;14.30;99.90;;;;;;4908195;28;20437;-79
2023/03/13 12:24:23;;;;;;;23.33;5.40;;;14.30;99.90;;;;;;4897187;28;20443;-77
2023/03/13 12:26:52;;;;;;;17.83;5.53;;;14.40;99.90;;;;;;4908185;28;20448;-78
2023/03/13 12:29:33;;;;;;;16.42;4.63;;;14.40;99.90;;;;;;4908070;28;20572;-80
2023/03/13 12:32:13;;;;;;;20.58;5.95;;;14.40;99.90;;;;;;4905615;28;20433;-80
2023/03/13 12:35:11;;;;;;;20.27;5.43;;;14.50;99.90;;;;;;4907264;28;20923;-76
2023/03/13 12:37:58;;;;;;;17.23;4.87;;;14.40;99.90;;;;;;4905083;28;20445;-76
2023/03/13 12:40:33;;;;;;;21.42;6.30;;;14.60;99.90;;;;;;4890916;28;20515;-76
2023/03/13 12:43:20;;;;;;;20.60;5.07;;;14.50;99.90;;;;;;4907832;28;20991;-76
2023/03/13 12:45:56;;;;;;;24.17;5.10;;;14.40;99.90;;;;;;4906632;28;20437;-76
2023/03/13 12:48:25;;;;;;;17.23;5.28;;;14.20;99.90;;;;;;4906304;28;20430;-77
2023/03/13 12:51:04;;;;;;;24.98;6.25;;;14.20;99.90;;;;;;4907182;28;20441;-77
2023/03/13 12:54:02;;;;;;;18.90;5.32;;;14.20;99.90;;;;;;4908399;28;20433;-78